WTB35H MYNN-MTPP
Flight info
| Callsign | WTB35H |
|---|---|
| Flight time | 1h 24m |
| Altitude | 37000 |
| Route | BOSAR DCT KNSLY DCT JOSES/N0372F230 A315 SAVAR SAVAR1C |
| Aircraft | A320/M-SDE3FGHIRWY/LB1 |
Departure
| Time | 2026-04-20 18:46 |
|---|---|
| Airport | Lynden Pindling International Airport (MYNN) |
Arrival
| Time | 2026-04-20 20:10 |
|---|---|
| Airport | Toussaint Louverture International Airport (MTPP) |
| Time | Latitude | Longitude | Altitude | Speed | Heading |
|---|---|---|---|---|---|
| 2026-04-20 17:37 | 25.04899 | -77.46776 | 13 ft | 0 kts | 147° |
| 2026-04-20 17:39 | 25.04900 | -77.46776 | 13 ft | 0 kts | 147° |
| 2026-04-20 18:31 | 25.04904 | -77.46779 | 12 ft | 4 kts | 146° |
| 2026-04-20 18:31 | 25.04925 | -77.46798 | 12 ft | 4 kts | 135° |
| 2026-04-20 18:32 | 25.04944 | -77.46819 | 15 ft | 4 kts | 137° |
| 2026-04-20 18:32 | 25.04956 | -77.46832 | 13 ft | 4 kts | 219° |
| 2026-04-20 18:32 | 25.04955 | -77.46835 | 13 ft | 0 kts | 245° |
| 2026-04-20 18:35 | 25.04955 | -77.46836 | 12 ft | 2 kts | 245° |
| 2026-04-20 18:35 | 25.04934 | -77.46888 | 14 ft | 9 kts | 245° |
| 2026-04-20 18:35 | 25.04906 | -77.46955 | 12 ft | 13 kts | 259° |
| 2026-04-20 18:36 | 25.04944 | -77.47036 | 12 ft | 12 kts | 313° |
| 2026-04-20 18:36 | 25.04996 | -77.47095 | 12 ft | 10 kts | 315° |
| 2026-04-20 18:36 | 25.05040 | -77.47145 | 12 ft | 8 kts | 313° |
| 2026-04-20 18:36 | 25.05077 | -77.47188 | 13 ft | 9 kts | 314° |
| 2026-04-20 18:37 | 25.05125 | -77.47241 | 12 ft | 9 kts | 315° |
| 2026-04-20 18:37 | 25.05166 | -77.47285 | 12 ft | 7 kts | 315° |
| 2026-04-20 18:37 | 25.05197 | -77.47323 | 12 ft | 6 kts | 309° |
| 2026-04-20 18:37 | 25.05209 | -77.47342 | 13 ft | 0 kts | 301° |
| 2026-04-20 18:38 | 25.05215 | -77.47355 | 12 ft | 0 kts | 293° |
| 2026-04-20 18:39 | 25.05221 | -77.47389 | 12 ft | 1 kts | 278° |
| 2026-04-20 18:39 | 25.05221 | -77.47397 | 12 ft | 0 kts | 273° |
| 2026-04-20 18:41 | 25.05221 | -77.47412 | 12 ft | 8 kts | 268° |
| 2026-04-20 18:41 | 25.05219 | -77.47423 | 13 ft | 0 kts | 260° |
| 2026-04-20 18:43 | 25.05212 | -77.47451 | 13 ft | 13 kts | 250° |
| 2026-04-20 18:43 | 25.05150 | -77.47507 | 12 ft | 11 kts | 159° |
| 2026-04-20 18:44 | 25.05126 | -77.47495 | 12 ft | 0 kts | 142° |
| 2026-04-20 18:44 | 25.05125 | -77.47494 | 12 ft | 0 kts | 139° |
| 2026-04-20 18:44 | 25.05123 | -77.47492 | 12 ft | 0 kts | 139° |
| 2026-04-20 18:45 | 25.05120 | -77.47489 | 12 ft | 1 kts | 139° |
| 2026-04-20 18:45 | 25.05116 | -77.47485 | 11 ft | 1 kts | 139° |
| 2026-04-20 18:45 | 25.05107 | -77.47475 | 11 ft | 7 kts | 135° |
| 2026-04-20 18:45 | 25.04894 | -77.47241 | 12 ft | 88 kts | 135° |
| 2026-04-20 18:46 | 25.04258 | -77.46532 | 12 ft | 163 kts | 135° |
| 2026-04-20 18:46 | 25.03378 | -77.45572 | 531 ft | 181 kts | 133° |
| 2026-04-20 18:46 | 25.02470 | -77.44574 | 1226 ft | 193 kts | 134° |
| 2026-04-20 18:46 | 25.01468 | -77.43458 | 1536 ft | 214 kts | 133° |
| 2026-04-20 18:47 | 25.00384 | -77.42248 | 1936 ft | 233 kts | 133° |
| 2026-04-20 18:47 | 24.99225 | -77.40961 | 2600 ft | 240 kts | 134° |
| 2026-04-20 18:47 | 24.97992 | -77.39659 | 3158 ft | 256 kts | 136° |
| 2026-04-20 18:47 | 24.96659 | -77.38294 | 3811 ft | 267 kts | 136° |
| 2026-04-20 18:48 | 24.95252 | -77.36872 | 4671 ft | 271 kts | 136° |
| 2026-04-20 18:48 | 24.93874 | -77.35481 | 5507 ft | 275 kts | 136° |
| 2026-04-20 18:48 | 24.92437 | -77.34025 | 6336 ft | 279 kts | 136° |
| 2026-04-20 18:48 | 24.90994 | -77.32558 | 7120 ft | 284 kts | 136° |
| 2026-04-20 18:49 | 24.89552 | -77.31090 | 7843 ft | 289 kts | 137° |
| 2026-04-20 18:49 | 24.88065 | -77.29575 | 8614 ft | 293 kts | 137° |
| 2026-04-20 18:49 | 24.86559 | -77.28035 | 9378 ft | 297 kts | 137° |
| 2026-04-20 18:49 | 24.85013 | -77.26451 | 10121 ft | 302 kts | 137° |
| 2026-04-20 18:50 | 24.83456 | -77.24859 | 10487 ft | 321 kts | 137° |
| 2026-04-20 18:50 | 24.81758 | -77.23129 | 10709 ft | 342 kts | 137° |
| 2026-04-20 18:50 | 24.79996 | -77.21337 | 11222 ft | 351 kts | 137° |
| 2026-04-20 18:50 | 24.78184 | -77.19498 | 11847 ft | 356 kts | 138° |
| 2026-04-20 18:51 | 24.76349 | -77.17635 | 12487 ft | 360 kts | 138° |
| 2026-04-20 18:51 | 24.74505 | -77.15762 | 13105 ft | 365 kts | 138° |
| 2026-04-20 18:51 | 24.72633 | -77.13861 | 13726 ft | 369 kts | 138° |
| 2026-04-20 18:51 | 24.70730 | -77.11926 | 14291 ft | 374 kts | 139° |
| 2026-04-20 18:52 | 24.68803 | -77.09968 | 14835 ft | 377 kts | 139° |
| 2026-04-20 18:52 | 24.66857 | -77.07988 | 15393 ft | 381 kts | 139° |
| 2026-04-20 18:52 | 24.64906 | -77.06003 | 15937 ft | 385 kts | 139° |
| 2026-04-20 18:52 | 24.62947 | -77.04006 | 16466 ft | 388 kts | 139° |
| 2026-04-20 18:53 | 24.60948 | -77.01970 | 17032 ft | 391 kts | 139° |
| 2026-04-20 18:53 | 24.58940 | -76.99926 | 17578 ft | 395 kts | 139° |
| 2026-04-20 18:53 | 24.56917 | -76.97864 | 18112 ft | 398 kts | 139° |
| 2026-04-20 18:53 | 24.54874 | -76.95783 | 18609 ft | 402 kts | 139° |
| 2026-04-20 18:54 | 24.52814 | -76.93691 | 19078 ft | 405 kts | 139° |
| 2026-04-20 18:54 | 24.50736 | -76.91585 | 19545 ft | 408 kts | 140° |
| 2026-04-20 18:54 | 24.48641 | -76.89465 | 20025 ft | 411 kts | 140° |
| 2026-04-20 18:54 | 24.46525 | -76.87326 | 20501 ft | 414 kts | 140° |
| 2026-04-20 18:55 | 24.44401 | -76.85173 | 20982 ft | 418 kts | 140° |
| 2026-04-20 18:55 | 24.42270 | -76.83012 | 21447 ft | 421 kts | 140° |
| 2026-04-20 18:55 | 24.40114 | -76.80824 | 21889 ft | 425 kts | 140° |
| 2026-04-20 18:55 | 24.37937 | -76.78617 | 22345 ft | 428 kts | 140° |
| 2026-04-20 18:56 | 24.35777 | -76.76429 | 22792 ft | 432 kts | 140° |
| 2026-04-20 18:56 | 24.33567 | -76.74194 | 23232 ft | 435 kts | 140° |
| 2026-04-20 18:56 | 24.31317 | -76.71920 | 23657 ft | 439 kts | 140° |
| 2026-04-20 18:56 | 24.29068 | -76.69651 | 24024 ft | 442 kts | 140° |
| 2026-04-20 18:57 | 24.26857 | -76.67426 | 24368 ft | 445 kts | 140° |
| 2026-04-20 18:57 | 24.24565 | -76.65119 | 24722 ft | 448 kts | 140° |
| 2026-04-20 18:57 | 24.22256 | -76.62792 | 25071 ft | 451 kts | 140° |
| 2026-04-20 18:57 | 24.19976 | -76.60494 | 25408 ft | 454 kts | 140° |
| 2026-04-20 18:58 | 24.17658 | -76.58153 | 25754 ft | 457 kts | 140° |
| 2026-04-20 18:58 | 24.15296 | -76.55767 | 26081 ft | 460 kts | 141° |
| 2026-04-20 18:58 | 24.12935 | -76.53387 | 26400 ft | 463 kts | 141° |
| 2026-04-20 18:58 | 24.10558 | -76.50994 | 26719 ft | 465 kts | 141° |
| 2026-04-20 18:59 | 24.08165 | -76.48587 | 27042 ft | 468 kts | 141° |
| 2026-04-20 18:59 | 24.05767 | -76.46177 | 27363 ft | 471 kts | 141° |
| 2026-04-20 18:59 | 24.03340 | -76.43739 | 27670 ft | 473 kts | 141° |
| 2026-04-20 18:59 | 24.00911 | -76.41305 | 27978 ft | 476 kts | 141° |
| 2026-04-20 19:00 | 23.98461 | -76.38846 | 28281 ft | 479 kts | 141° |
| 2026-04-20 19:00 | 23.96001 | -76.36374 | 28587 ft | 481 kts | 141° |
| 2026-04-20 19:00 | 23.93559 | -76.33923 | 28873 ft | 484 kts | 141° |
| 2026-04-20 19:00 | 23.91081 | -76.31439 | 29165 ft | 486 kts | 141° |
| 2026-04-20 19:01 | 23.88575 | -76.28926 | 29455 ft | 489 kts | 141° |
| 2026-04-20 19:01 | 23.86063 | -76.26411 | 29723 ft | 491 kts | 141° |
| 2026-04-20 19:01 | 23.83536 | -76.23885 | 29999 ft | 494 kts | 141° |
| 2026-04-20 19:01 | 23.80996 | -76.21352 | 30235 ft | 496 kts | 141° |
| 2026-04-20 19:02 | 23.78438 | -76.18802 | 30448 ft | 498 kts | 141° |
| 2026-04-20 19:02 | 23.75873 | -76.16249 | 30671 ft | 500 kts | 141° |
| 2026-04-20 19:02 | 23.73290 | -76.13684 | 30864 ft | 502 kts | 141° |
| 2026-04-20 19:02 | 23.70696 | -76.11117 | 31076 ft | 504 kts | 141° |
| 2026-04-20 19:03 | 23.68098 | -76.08553 | 31279 ft | 506 kts | 141° |
| 2026-04-20 19:03 | 23.65488 | -76.05982 | 31564 ft | 505 kts | 141° |
| 2026-04-20 19:03 | 23.62862 | -76.03432 | 31845 ft | 504 kts | 143° |
| 2026-04-20 19:03 | 23.60204 | -76.00952 | 32128 ft | 503 kts | 144° |
| 2026-04-20 19:04 | 23.57506 | -75.98515 | 32410 ft | 503 kts | 144° |
| 2026-04-20 19:04 | 23.54792 | -75.96110 | 32690 ft | 502 kts | 145° |
| 2026-04-20 19:04 | 23.52078 | -75.93716 | 32967 ft | 502 kts | 144° |
| 2026-04-20 19:04 | 23.49367 | -75.91309 | 33243 ft | 502 kts | 144° |
| 2026-04-20 19:05 | 23.46668 | -75.88892 | 33514 ft | 502 kts | 144° |
| 2026-04-20 19:05 | 23.43976 | -75.86463 | 33789 ft | 502 kts | 144° |
| 2026-04-20 19:05 | 23.41287 | -75.84030 | 34041 ft | 502 kts | 144° |
| 2026-04-20 19:05 | 23.38606 | -75.81600 | 34292 ft | 502 kts | 143° |
| 2026-04-20 19:06 | 23.35918 | -75.79163 | 34526 ft | 502 kts | 143° |
| 2026-04-20 19:06 | 23.33265 | -75.76757 | 34770 ft | 501 kts | 143° |
| 2026-04-20 19:06 | 23.30585 | -75.74329 | 35010 ft | 501 kts | 144° |
| 2026-04-20 19:06 | 23.27904 | -75.71908 | 35230 ft | 500 kts | 144° |
| 2026-04-20 19:07 | 23.25224 | -75.69497 | 35435 ft | 500 kts | 144° |
| 2026-04-20 19:07 | 23.22547 | -75.67091 | 35635 ft | 500 kts | 144° |
| 2026-04-20 19:07 | 23.19861 | -75.64679 | 35830 ft | 500 kts | 144° |
| 2026-04-20 19:07 | 23.17181 | -75.62273 | 36021 ft | 500 kts | 144° |
| 2026-04-20 19:08 | 23.14500 | -75.59865 | 36208 ft | 500 kts | 144° |
| 2026-04-20 19:08 | 23.09141 | -75.55046 | 36571 ft | 500 kts | 144° |
| 2026-04-20 19:08 | 23.06465 | -75.52645 | 36722 ft | 500 kts | 144° |
| 2026-04-20 19:09 | 23.03784 | -75.50240 | 36899 ft | 499 kts | 144° |
| 2026-04-20 19:09 | 23.01111 | -75.47841 | 37052 ft | 499 kts | 144° |
| 2026-04-20 19:09 | 22.98445 | -75.45446 | 37089 ft | 498 kts | 144° |
| 2026-04-20 19:10 | 22.93098 | -75.40667 | 37081 ft | 496 kts | 144° |
| 2026-04-20 19:10 | 22.87764 | -75.35909 | 37083 ft | 496 kts | 144° |
| 2026-04-20 19:11 | 22.82442 | -75.31153 | 37078 ft | 496 kts | 144° |
| 2026-04-20 19:11 | 22.77153 | -75.26433 | 37090 ft | 496 kts | 144° |
| 2026-04-20 19:12 | 22.71795 | -75.21654 | 37080 ft | 496 kts | 144° |
| 2026-04-20 19:12 | 22.66462 | -75.16910 | 37082 ft | 496 kts | 144° |
| 2026-04-20 19:13 | 22.61132 | -75.12168 | 37089 ft | 496 kts | 144° |
| 2026-04-20 19:13 | 22.55803 | -75.07427 | 37091 ft | 496 kts | 144° |
| 2026-04-20 19:14 | 22.51374 | -75.03497 | 37100 ft | 496 kts | 144° |
| 2026-04-20 19:14 | 22.46045 | -74.98775 | 37092 ft | 495 kts | 144° |
| 2026-04-20 19:15 | 22.40703 | -74.94049 | 37098 ft | 495 kts | 144° |
| 2026-04-20 19:15 | 22.35375 | -74.89330 | 37074 ft | 495 kts | 144° |
| 2026-04-20 19:16 | 22.30045 | -74.84611 | 37079 ft | 496 kts | 144° |
| 2026-04-20 19:16 | 22.24706 | -74.79898 | 37080 ft | 496 kts | 144° |
| 2026-04-20 19:17 | 22.19365 | -74.75193 | 37088 ft | 496 kts | 144° |
| 2026-04-20 19:17 | 22.14018 | -74.70484 | 37085 ft | 496 kts | 144° |
| 2026-04-20 19:18 | 22.08667 | -74.65774 | 37085 ft | 496 kts | 144° |
| 2026-04-20 19:18 | 22.03324 | -74.61072 | 37065 ft | 496 kts | 144° |
| 2026-04-20 19:19 | 21.97979 | -74.56369 | 37077 ft | 495 kts | 144° |
| 2026-04-20 19:19 | 21.92640 | -74.51678 | 37083 ft | 495 kts | 144° |
| 2026-04-20 19:20 | 21.87302 | -74.46997 | 37083 ft | 495 kts | 144° |
| 2026-04-20 19:20 | 21.81956 | -74.42318 | 37080 ft | 495 kts | 144° |
| 2026-04-20 19:21 | 21.76623 | -74.37642 | 37081 ft | 495 kts | 144° |
| 2026-04-20 19:21 | 21.71283 | -74.32973 | 37090 ft | 495 kts | 144° |
| 2026-04-20 19:22 | 21.65942 | -74.28306 | 37069 ft | 494 kts | 144° |
| 2026-04-20 19:22 | 21.60606 | -74.23653 | 37080 ft | 494 kts | 144° |
| 2026-04-20 19:23 | 21.55263 | -74.19000 | 37085 ft | 494 kts | 144° |
| 2026-04-20 19:23 | 21.49932 | -74.14352 | 37086 ft | 494 kts | 144° |
| 2026-04-20 19:24 | 21.44582 | -74.09696 | 37093 ft | 494 kts | 144° |
| 2026-04-20 19:24 | 21.39239 | -74.05044 | 37084 ft | 494 kts | 144° |
| 2026-04-20 19:25 | 21.33896 | -74.00410 | 37075 ft | 494 kts | 144° |
| 2026-04-20 19:25 | 21.28546 | -73.95780 | 37076 ft | 494 kts | 144° |
| 2026-04-20 19:26 | 21.23202 | -73.91143 | 37086 ft | 494 kts | 144° |
| 2026-04-20 19:26 | 21.17868 | -73.86513 | 37089 ft | 494 kts | 144° |
| 2026-04-20 19:27 | 21.12514 | -73.81886 | 37076 ft | 494 kts | 144° |
| 2026-04-20 19:27 | 21.07204 | -73.77296 | 37080 ft | 494 kts | 144° |
| 2026-04-20 19:28 | 21.01967 | -73.72769 | 37075 ft | 493 kts | 144° |
| 2026-04-20 19:28 | 20.96578 | -73.68215 | 37060 ft | 491 kts | 149° |
| 2026-04-20 19:29 | 20.90674 | -73.64654 | 37068 ft | 486 kts | 156° |
| 2026-04-20 19:29 | 20.84680 | -73.61268 | 37069 ft | 486 kts | 156° |
| 2026-04-20 19:30 | 20.78697 | -73.57902 | 37067 ft | 487 kts | 156° |
| 2026-04-20 19:30 | 20.72654 | -73.54502 | 37064 ft | 495 kts | 156° |
| 2026-04-20 19:31 | 20.66553 | -73.51063 | 37062 ft | 501 kts | 156° |
| 2026-04-20 19:31 | 20.60351 | -73.47570 | 37064 ft | 506 kts | 156° |
| 2026-04-20 19:32 | 20.54097 | -73.44062 | 37063 ft | 510 kts | 156° |
| 2026-04-20 19:32 | 20.47800 | -73.40520 | 37058 ft | 512 kts | 156° |
| 2026-04-20 19:33 | 20.41482 | -73.36972 | 37059 ft | 514 kts | 156° |
| 2026-04-20 19:33 | 20.35144 | -73.33419 | 37060 ft | 515 kts | 156° |
| 2026-04-20 19:34 | 20.28783 | -73.29861 | 37062 ft | 516 kts | 156° |
| 2026-04-20 19:34 | 20.22431 | -73.26300 | 37061 ft | 516 kts | 156° |
| 2026-04-20 19:35 | 20.16074 | -73.22737 | 37026 ft | 517 kts | 156° |
| 2026-04-20 19:35 | 20.12913 | -73.20969 | 36400 ft | 509 kts | 156° |
| 2026-04-20 19:35 | 20.09791 | -73.19226 | 35327 ft | 503 kts | 156° |
| 2026-04-20 19:35 | 20.06736 | -73.17521 | 34824 ft | 486 kts | 156° |
| 2026-04-20 19:36 | 20.03782 | -73.15873 | 34297 ft | 473 kts | 156° |
| 2026-04-20 19:36 | 20.00910 | -73.14272 | 33751 ft | 460 kts | 156° |
| 2026-04-20 19:36 | 19.98113 | -73.12712 | 33239 ft | 446 kts | 156° |
| 2026-04-20 19:36 | 19.95421 | -73.11212 | 32546 ft | 439 kts | 156° |
| 2026-04-20 19:37 | 19.92730 | -73.09717 | 31820 ft | 434 kts | 156° |
| 2026-04-20 19:37 | 19.90072 | -73.08244 | 31121 ft | 429 kts | 156° |
| 2026-04-20 19:37 | 19.87437 | -73.06779 | 30433 ft | 424 kts | 155° |
| 2026-04-20 19:37 | 19.84850 | -73.05330 | 29929 ft | 413 kts | 155° |
| 2026-04-20 19:38 | 19.82346 | -73.03919 | 29342 ft | 405 kts | 155° |
| 2026-04-20 19:38 | 19.79871 | -73.02523 | 28573 ft | 402 kts | 155° |
| 2026-04-20 19:38 | 19.77409 | -73.01136 | 27866 ft | 397 kts | 154° |
| 2026-04-20 19:38 | 19.75023 | -72.99760 | 27532 ft | 383 kts | 153° |
| 2026-04-20 19:39 | 19.72690 | -72.98363 | 27432 ft | 386 kts | 153° |
| 2026-04-20 19:39 | 19.70353 | -72.96941 | 27343 ft | 388 kts | 152° |
| 2026-04-20 19:39 | 19.68014 | -72.95514 | 27269 ft | 389 kts | 152° |
| 2026-04-20 19:39 | 19.65663 | -72.94088 | 27180 ft | 388 kts | 153° |
| 2026-04-20 19:40 | 19.63322 | -72.92675 | 27087 ft | 387 kts | 152° |
| 2026-04-20 19:40 | 19.60982 | -72.91267 | 26823 ft | 386 kts | 152° |
| 2026-04-20 19:40 | 19.58653 | -72.89868 | 26404 ft | 384 kts | 152° |
| 2026-04-20 19:40 | 19.56332 | -72.88476 | 26006 ft | 382 kts | 152° |
| 2026-04-20 19:41 | 19.54022 | -72.87092 | 25601 ft | 380 kts | 152° |
| 2026-04-20 19:41 | 19.51750 | -72.85730 | 25170 ft | 379 kts | 152° |
| 2026-04-20 19:41 | 19.49459 | -72.84355 | 24745 ft | 378 kts | 152° |
| 2026-04-20 19:41 | 19.47168 | -72.82979 | 24306 ft | 378 kts | 151° |
| 2026-04-20 19:42 | 19.44878 | -72.81605 | 23865 ft | 378 kts | 151° |
| 2026-04-20 19:42 | 19.42595 | -72.80237 | 23386 ft | 378 kts | 151° |
| 2026-04-20 19:42 | 19.40305 | -72.78867 | 22933 ft | 376 kts | 151° |
| 2026-04-20 19:42 | 19.38033 | -72.77509 | 22491 ft | 374 kts | 151° |
| 2026-04-20 19:43 | 19.35771 | -72.76156 | 22054 ft | 372 kts | 151° |
| 2026-04-20 19:43 | 19.33512 | -72.74805 | 21626 ft | 371 kts | 151° |
| 2026-04-20 19:43 | 19.31266 | -72.73465 | 21203 ft | 370 kts | 150° |
| 2026-04-20 19:43 | 19.29036 | -72.72133 | 20782 ft | 368 kts | 150° |
| 2026-04-20 19:44 | 19.26804 | -72.70796 | 20359 ft | 367 kts | 150° |
| 2026-04-20 19:44 | 19.24613 | -72.69486 | 19947 ft | 366 kts | 150° |
| 2026-04-20 19:44 | 19.22362 | -72.68143 | 19526 ft | 365 kts | 150° |
| 2026-04-20 19:44 | 19.20148 | -72.66823 | 19105 ft | 365 kts | 150° |
| 2026-04-20 19:45 | 19.17938 | -72.65505 | 18690 ft | 364 kts | 150° |
| 2026-04-20 19:45 | 19.15733 | -72.64191 | 18269 ft | 364 kts | 150° |
| 2026-04-20 19:45 | 19.13534 | -72.62881 | 17822 ft | 362 kts | 150° |
| 2026-04-20 19:45 | 19.11348 | -72.61578 | 17416 ft | 360 kts | 150° |
| 2026-04-20 19:46 | 19.09169 | -72.60280 | 17015 ft | 357 kts | 150° |
| 2026-04-20 19:46 | 19.07003 | -72.58998 | 16590 ft | 356 kts | 150° |
| 2026-04-20 19:46 | 19.04834 | -72.57731 | 16168 ft | 356 kts | 151° |
| 2026-04-20 19:46 | 19.02715 | -72.56502 | 15955 ft | 349 kts | 151° |
| 2026-04-20 19:47 | 19.00625 | -72.55293 | 15743 ft | 336 kts | 151° |
| 2026-04-20 19:47 | 18.98594 | -72.54120 | 15207 ft | 330 kts | 152° |
| 2026-04-20 19:47 | 18.96476 | -72.53281 | 14630 ft | 324 kts | 170° |
| 2026-04-20 19:47 | 18.94248 | -72.53056 | 14062 ft | 320 kts | 178° |
| 2026-04-20 19:48 | 18.92036 | -72.52966 | 13461 ft | 316 kts | 179° |
| 2026-04-20 19:48 | 18.89849 | -72.52894 | 12837 ft | 313 kts | 179° |
| 2026-04-20 19:48 | 18.87680 | -72.52832 | 12250 ft | 309 kts | 179° |
| 2026-04-20 19:48 | 18.85576 | -72.52781 | 12086 ft | 312 kts | 179° |
| 2026-04-20 19:49 | 18.83404 | -72.52728 | 12063 ft | 311 kts | 179° |
| 2026-04-20 19:49 | 18.81232 | -72.52675 | 12062 ft | 311 kts | 179° |
| 2026-04-20 19:49 | 18.79069 | -72.52625 | 12067 ft | 310 kts | 179° |
| 2026-04-20 19:49 | 18.76910 | -72.52578 | 12066 ft | 310 kts | 179° |
| 2026-04-20 19:50 | 18.74752 | -72.52546 | 12067 ft | 311 kts | 180° |
| 2026-04-20 19:50 | 18.72585 | -72.52529 | 12069 ft | 311 kts | 179° |
| 2026-04-20 19:50 | 18.70423 | -72.52453 | 12062 ft | 311 kts | 173° |
| 2026-04-20 19:50 | 18.68391 | -72.51734 | 12065 ft | 310 kts | 148° |
| 2026-04-20 19:51 | 18.66848 | -72.50219 | 12067 ft | 309 kts | 123° |
| 2026-04-20 19:51 | 18.66031 | -72.48146 | 12067 ft | 308 kts | 98° |
| 2026-04-20 19:51 | 18.66111 | -72.45905 | 12068 ft | 307 kts | 73° |
| 2026-04-20 19:51 | 18.67058 | -72.43910 | 12069 ft | 306 kts | 53° |
| 2026-04-20 19:52 | 18.68408 | -72.42127 | 12066 ft | 307 kts | 49° |
| 2026-04-20 19:52 | 18.69773 | -72.40400 | 12066 ft | 307 kts | 49° |
| 2026-04-20 19:52 | 18.71132 | -72.38695 | 12061 ft | 307 kts | 49° |
| 2026-04-20 19:52 | 18.72497 | -72.36984 | 11784 ft | 304 kts | 49° |
| 2026-04-20 19:53 | 18.73852 | -72.35292 | 11266 ft | 300 kts | 49° |
| 2026-04-20 19:53 | 18.75199 | -72.33621 | 10662 ft | 297 kts | 49° |
| 2026-04-20 19:53 | 18.76532 | -72.31978 | 10115 ft | 292 kts | 49° |
| 2026-04-20 19:53 | 18.77850 | -72.30365 | 9533 ft | 288 kts | 49° |
| 2026-04-20 19:54 | 18.79153 | -72.28777 | 9135 ft | 284 kts | 49° |
| 2026-04-20 19:54 | 18.80459 | -72.27191 | 9050 ft | 286 kts | 49° |
| 2026-04-20 19:54 | 18.81769 | -72.25598 | 9064 ft | 287 kts | 49° |
| 2026-04-20 19:54 | 18.83083 | -72.24005 | 9072 ft | 290 kts | 49° |
| 2026-04-20 19:55 | 18.84407 | -72.22406 | 9071 ft | 289 kts | 49° |
| 2026-04-20 19:55 | 18.85727 | -72.20813 | 9067 ft | 288 kts | 49° |
| 2026-04-20 19:55 | 18.87046 | -72.19221 | 9070 ft | 288 kts | 49° |
| 2026-04-20 19:55 | 18.88368 | -72.17627 | 9059 ft | 288 kts | 49° |
| 2026-04-20 19:56 | 18.89237 | -72.16579 | 9062 ft | 288 kts | 49° |
| 2026-04-20 19:56 | 18.91006 | -72.14445 | 9062 ft | 288 kts | 49° |
| 2026-04-20 19:56 | 18.92329 | -72.12852 | 9068 ft | 288 kts | 51° |
| 2026-04-20 19:56 | 18.93292 | -72.11014 | 9067 ft | 287 kts | 75° |
| 2026-04-20 19:57 | 18.93382 | -72.08932 | 9069 ft | 287 kts | 102° |
| 2026-04-20 19:57 | 18.92580 | -72.07026 | 9067 ft | 287 kts | 128° |
| 2026-04-20 19:57 | 18.91068 | -72.05680 | 8907 ft | 285 kts | 153° |
| 2026-04-20 19:57 | 18.89210 | -72.05147 | 8298 ft | 282 kts | 180° |
| 2026-04-20 19:58 | 18.87323 | -72.05617 | 8104 ft | 284 kts | 208° |
| 2026-04-20 19:58 | 18.85787 | -72.06933 | 8064 ft | 287 kts | 227° |
| 2026-04-20 19:58 | 18.84449 | -72.08517 | 8065 ft | 289 kts | 230° |
| 2026-04-20 19:58 | 18.83723 | -72.09683 | 8064 ft | 289 kts | 246° |
| 2026-04-20 19:59 | 18.83020 | -72.12390 | 8062 ft | 290 kts | 258° |
| 2026-04-20 19:59 | 18.82628 | -72.14483 | 8063 ft | 291 kts | 259° |
| 2026-04-20 19:59 | 18.82246 | -72.16575 | 8063 ft | 290 kts | 259° |
| 2026-04-20 19:59 | 18.81863 | -72.18681 | 8063 ft | 290 kts | 259° |
| 2026-04-20 20:00 | 18.81483 | -72.20770 | 8063 ft | 290 kts | 259° |
| 2026-04-20 20:00 | 18.81232 | -72.22156 | 8061 ft | 290 kts | 259° |
| 2026-04-20 20:00 | 18.80851 | -72.24216 | 8061 ft | 290 kts | 256° |
| 2026-04-20 20:00 | 18.79665 | -72.26715 | 8066 ft | 290 kts | 228° |
| 2026-04-20 20:01 | 18.78095 | -72.28034 | 8068 ft | 291 kts | 206° |
| 2026-04-20 20:01 | 18.76174 | -72.28596 | 8062 ft | 288 kts | 181° |
| 2026-04-20 20:01 | 18.74828 | -72.28492 | 8062 ft | 287 kts | 166° |
| 2026-04-20 20:01 | 18.73028 | -72.27675 | 8062 ft | 285 kts | 143° |
| 2026-04-20 20:02 | 18.71661 | -72.26184 | 8066 ft | 283 kts | 120° |
| 2026-04-20 20:02 | 18.70949 | -72.24264 | 8053 ft | 282 kts | 99° |
| 2026-04-20 20:02 | 18.70960 | -72.22221 | 7716 ft | 279 kts | 77° |
| 2026-04-20 20:02 | 18.71472 | -72.20250 | 7302 ft | 279 kts | 75° |
| 2026-04-20 20:03 | 18.72007 | -72.18284 | 6942 ft | 277 kts | 75° |
| 2026-04-20 20:03 | 18.72538 | -72.16328 | 6583 ft | 276 kts | 75° |
| 2026-04-20 20:03 | 18.73059 | -72.14392 | 6367 ft | 274 kts | 75° |
| 2026-04-20 20:03 | 18.73580 | -72.12449 | 6365 ft | 276 kts | 75° |
| 2026-04-20 20:04 | 18.74034 | -72.10486 | 6366 ft | 276 kts | 85° |
| 2026-04-20 20:04 | 18.73785 | -72.08510 | 6368 ft | 274 kts | 111° |
| 2026-04-20 20:04 | 18.72782 | -72.06827 | 6362 ft | 273 kts | 135° |
| 2026-04-20 20:04 | 18.71206 | -72.05712 | 6340 ft | 274 kts | 157° |
| 2026-04-20 20:05 | 18.69376 | -72.05320 | 5794 ft | 268 kts | 181° |
| 2026-04-20 20:05 | 18.67601 | -72.05731 | 4974 ft | 264 kts | 204° |
| 2026-04-20 20:05 | 18.66095 | -72.06826 | 3998 ft | 263 kts | 218° |
| 2026-04-20 20:05 | 18.64715 | -72.08024 | 3501 ft | 244 kts | 218° |
| 2026-04-20 20:06 | 18.63481 | -72.09091 | 3045 ft | 228 kts | 217° |
| 2026-04-20 20:06 | 18.62270 | -72.10131 | 2398 ft | 222 kts | 218° |
| 2026-04-20 20:06 | 18.61133 | -72.11103 | 2145 ft | 209 kts | 218° |
| 2026-04-20 20:06 | 18.60009 | -72.12062 | 2065 ft | 203 kts | 220° |
| 2026-04-20 20:07 | 18.59152 | -72.13190 | 2106 ft | 185 kts | 241° |
| 2026-04-20 20:07 | 18.58768 | -72.14392 | 2030 ft | 165 kts | 261° |
| 2026-04-20 20:07 | 18.58697 | -72.15542 | 2073 ft | 155 kts | 267° |
| 2026-04-20 20:07 | 18.58644 | -72.16656 | 2081 ft | 151 kts | 266° |
| 2026-04-20 20:08 | 18.58589 | -72.17759 | 2078 ft | 149 kts | 267° |
| 2026-04-20 20:08 | 18.58534 | -72.18847 | 1851 ft | 150 kts | 267° |
| 2026-04-20 20:08 | 18.58478 | -72.19945 | 1641 ft | 149 kts | 267° |
| 2026-04-20 20:08 | 18.58423 | -72.21032 | 1432 ft | 149 kts | 266° |
| 2026-04-20 20:09 | 18.58366 | -72.22114 | 1233 ft | 148 kts | 266° |
| 2026-04-20 20:09 | 18.58310 | -72.23194 | 1030 ft | 148 kts | 266° |
| 2026-04-20 20:09 | 18.58255 | -72.24277 | 868 ft | 147 kts | 267° |
| 2026-04-20 20:09 | 18.58200 | -72.25338 | 704 ft | 143 kts | 268° |
| 2026-04-20 20:10 | 18.58147 | -72.26373 | 492 ft | 141 kts | 269° |
| 2026-04-20 20:10 | 18.58094 | -72.27397 | 248 ft | 138 kts | 269° |
| 2026-04-20 20:10 | 18.58061 | -72.28356 | 113 ft | 97 kts | 268° |
| 2026-04-20 20:10 | 18.58034 | -72.28808 | 105 ft | 49 kts | 266° |
| 2026-04-20 20:11 | 18.58013 | -72.29144 | 98 ft | 43 kts | 267° |
| 2026-04-20 20:11 | 18.57992 | -72.29420 | 96 ft | 23 kts | 251° |
| 2026-04-20 20:11 | 18.57876 | -72.29463 | 96 ft | 18 kts | 180° |
| 2026-04-20 20:11 | 18.57762 | -72.29457 | 96 ft | 15 kts | 176° |
| 2026-04-20 20:12 | 18.57672 | -72.29486 | 95 ft | 13 kts | 231° |
| 2026-04-20 20:12 | 18.57656 | -72.29570 | 95 ft | 11 kts | 268° |
| 2026-04-20 20:12 | 18.57656 | -72.29649 | 95 ft | 10 kts | 271° |
| 2026-04-20 20:13 | 18.57619 | -72.29715 | 92 ft | 0 kts | 168° |
| 2026-04-20 20:13 | 18.57609 | -72.29716 | 92 ft | 1 kts | 176° |
| 2026-04-20 20:13 | 18.57605 | -72.29716 | 92 ft | 0 kts | 179° |